Time;durP1;ratioP1;P1;durP2;ratioP2;P2;SDS_P1;SDS_P2;PMS_P1;PMS_P2;Temp;Humidity;BMP_temperature;BMP_pressure;BME280_temperature;BME280_humidity;BME280_pressure;Samples;Min_cycle;Max_cycle;Signal;HPM_P1;HPM_P2
2023/02/03 00:04:25;;;;;;;109.80;48.90;;;;;;;1.58;85.65;100774.46;672985;1265;138656;-82
2023/02/03 00:19:28;;;;;;;51.30;21.90;;;;;;;1.18;86.17;100775.95;674028;1265;140170;-82
2023/02/03 00:34:31;;;;;;;74.20;20.30;;;;;;;1.03;86.37;100786.04;674223;1258;139311;-81
2023/02/03 00:49:35;;;;;;;13.40;6.70;;;;;;;0.98;86.69;100774.51;673883;1262;138990;-81
2023/02/03 01:04:39;;;;;;;91.90;29.50;;;;;;;0.79;87.59;100757.67;675337;1262;139100;-81
2023/02/03 01:19:43;;;;;;;47.70;22.20;;;;;;;0.67;87.62;100741.99;674305;1262;138432;-81
2023/02/03 01:34:46;;;;;;;11.80;6.80;;;;;;;0.72;87.37;100726.83;672252;1262;141050;-82
2023/02/03 01:49:57;;;;;;;10.70;5.80;;;;;;;0.48;87.51;100710.17;671091;1262;139105;-82
2023/02/03 02:05:31;;;;;;;11.50;5.90;;;;;;;0.54;87.51;100679.16;674532;1262;139435;-82
2023/02/03 02:21:18;;;;;;;18.30;8.10;;;;;;;0.52;87.41;100666.66;675354;1263;139095;-84
2023/02/03 02:36:40;;;;;;;15.00;6.40;;;;;;;0.49;88.05;100650.26;674770;1263;138818;-82
2023/02/03 02:51:47;;;;;;;15.40;6.10;;;;;;;0.57;87.56;100644.10;673689;1263;139284;-83
2023/02/03 03:07:15;;;;;;;18.90;10.20;;;;;;;0.53;88.15;100622.91;672960;1262;139775;-81
2023/02/03 03:22:25;;;;;;;29.20;13.70;;;;;;;0.55;88.66;100620.23;676617;1263;138704;-82
2023/02/03 03:37:55;;;;;;;14.70;6.40;;;;;;;0.57;88.38;100618.95;674557;1263;138856;-81
2023/02/03 03:53:01;;;;;;;31.60;16.90;;;;;;;0.49;89.85;100613.23;673890;1263;138892;-81
2023/02/03 04:08:05;;;;;;;57.90;27.00;;;;;;;0.57;91.23;100588.65;675886;1260;139026;-81
2023/02/03 04:26:18;;;;;;;43.60;21.20;;;;;;;0.67;92.08;100564.48;652741;1309;544952;-81
2023/02/03 04:41:21;;;;;;;15.90;8.20;;;;;;;0.63;92.26;100561.56;672574;1272;138671;-80
2023/02/03 04:56:25;;;;;;;21.00;8.80;;;;;;;0.70;91.97;100548.38;671044;1275;138435;-80
2023/02/03 05:11:28;;;;;;;20.80;11.00;;;;;;;0.76;92.31;100525.02;669689;1276;138535;-80
2023/02/03 05:26:35;;;;;;;22.50;11.80;;;;;;;0.97;92.02;100489.66;669697;1276;138568;-81
2023/02/03 05:41:51;;;;;;;25.60;13.20;;;;;;;0.85;91.64;100462.10;668221;1275;138980;-80
2023/02/03 05:56:54;;;;;;;42.00;19.50;;;;;;;0.95;92.20;100432.71;669086;1283;139534;-81
2023/02/03 06:11:58;;;;;;;66.00;31.20;;;;;;;1.00;92.44;100416.49;670331;1276;138371;-79
2023/02/03 06:27:01;;;;;;;37.00;18.50;;;;;;;1.12;92.91;100409.03;670458;1275;138521;-81
2023/02/03 06:42:05;;;;;;;45.00;20.00;;;;;;;1.12;94.43;100383.55;669729;1276;139027;-81
2023/02/03 06:57:08;;;;;;;33.80;16.40;;;;;;;1.19;95.57;100352.91;668839;1275;138988;-81
2023/02/03 07:12:12;;;;;;;66.60;32.20;;;;;;;1.36;95.07;100321.76;670947;1272;139305;-81
2023/02/03 07:27:15;;;;;;;60.60;29.70;;;;;;;1.47;95.53;100290.39;671845;1267;139255;-82
2023/02/03 07:42:19;;;;;;;48.50;24.90;;;;;;;1.63;95.74;100269.05;673261;1264;138740;-81
2023/02/03 07:57:25;;;;;;;51.60;24.50;;;;;;;1.78;95.28;100237.94;671791;1269;139242;-82
2023/02/03 08:12:28;;;;;;;101.20;47.80;;;;;;;1.90;94.73;100216.59;672742;1263;139821;-82
2023/02/03 08:27:32;;;;;;;56.30;21.90;;;;;;;2.16;93.88;100180.05;674874;1259;138954;-82
2023/02/03 08:42:36;;;;;;;50.60;23.90;;;;;;;2.30;93.14;100142.67;674688;1260;138976;-81
2023/02/03 08:57:40;;;;;;;51.30;24.30;;;;;;;2.59;92.41;100095.67;675001;1262;138998;-82
2023/02/03 09:12:44;;;;;;;47.30;24.10;;;;;;;2.69;90.95;100041.71;674149;1263;138580;-81
2023/02/03 09:27:47;;;;;;;43.80;18.40;;;;;;;2.81;90.53;100014.42;674966;1261;138986;-82
2023/02/03 09:43:11;;;;;;;91.00;25.40;;;;;;;2.78;90.12;99994.05;673247;1263;138910;-81
2023/02/03 09:58:19;;;;;;;32.60;14.70;;;;;;;2.87;89.48;99950.68;672720;1260;139315;-81
2023/02/03 10:13:53;;;;;;;33.20;16.30;;;;;;;2.94;88.48;99902.17;674218;1264;139349;-82
2023/02/03 10:29:21;;;;;;;130.50;39.80;;;;;;;3.02;87.08;99858.65;675906;1263;139601;-82
2023/02/03 10:44:37;;;;;;;76.30;30.00;;;;;;;3.18;87.23;99810.48;677176;1260;139140;-81
2023/02/03 10:59:45;;;;;;;29.90;16.40;;;;;;;3.10;87.73;99759.65;673051;1264;138948;-80
2023/02/03 11:14:51;;;;;;;21.30;10.20;;;;;;;3.14;88.38;99706.39;673977;1264;138808;-80
2023/02/03 11:30:18;;;;;;;61.10;23.60;;;;;;;2.99;90.14;99666.78;676281;1262;138626;-82
2023/02/03 11:45:24;;;;;;;57.60;24.70;;;;;;;2.85;92.12;99618.95;674577;1260;139681;-81
2023/02/03 12:00:33;;;;;;;147.00;47.40;;;;;;;2.79;93.52;99568.72;673329;1266;138442;-81
2023/02/03 12:16:04;;;;;;;98.40;37.60;;;;;;;2.79;93.57;99518.66;672886;1264;139117;-81
2023/02/03 12:31:28;;;;;;;80.30;32.60;;;;;;;2.83;93.73;99468.50;673752;1264;138821;-82
2023/02/03 12:46:45;;;;;;;57.70;25.90;;;;;;;2.91;94.01;99421.52;672880;1264;138581;-82
2023/02/03 13:01:57;;;;;;;92.60;40.50;;;;;;;3.00;93.54;99370.45;677103;1262;138601;-81
2023/02/03 13:17:11;;;;;;;82.00;36.10;;;;;;;2.98;93.00;99338.45;675955;1262;138812;-82
2023/02/03 13:32:33;;;;;;;82.50;34.30;;;;;;;2.75;92.95;99308.79;674659;1262;138605;-80
2023/02/03 13:47:38;;;;;;;53.20;27.00;;;;;;;2.64;93.70;99287.97;675297;1264;138347;-81
2023/02/03 14:02:44;;;;;;;123.10;47.90;;;;;;;2.59;94.22;99272.80;673572;1262;138546;-81
2023/02/03 14:17:47;;;;;;;107.80;38.10;;;;;;;2.50;94.62;99249.41;674399;1263;138690;-82
2023/02/03 14:32:54;;;;;;;84.50;30.90;;;;;;;2.41;95.10;99229.34;673729;1259;140075;-81
2023/02/03 14:48:22;;;;;;;139.40;42.30;;;;;;;2.40;95.16;99221.48;673332;1262;139026;-82
2023/02/03 15:03:26;;;;;;;;;;;;;;;2.38;94.93;99214.91;674863;1263;142832;-81
2023/02/03 15:18:35;;;;;;;55.40;20.80;;;;;;;2.43;94.74;99214.55;674564;1262;125564;-81
2023/02/03 15:33:43;;;;;;;243.30;85.00;;;;;;;2.36;94.59;99214.85;674495;1265;138889;-82
2023/02/03 15:49:12;;;;;;;58.50;18.90;;;;;;;2.30;94.26;99226.48;674255;1260;138493;-82
2023/02/03 16:04:17;;;;;;;44.80;19.10;;;;;;;2.34;93.97;99247.58;672133;1264;138425;-83
2023/02/03 16:19:22;;;;;;;53.30;20.70;;;;;;;2.42;93.56;99259.80;676808;1263;138840;-82
2023/02/03 17:05:10;;;;;;;48.00;19.40;;;;;;;2.47;92.06;99304.89;677615;1265;139527;-83
2023/02/03 17:20:14;;;;;;;48.40;22.90;;;;;;;2.52;91.59;99335.10;675884;1263;139088;-83
2023/02/03 17:35:17;;;;;;;34.90;14.90;;;;;;;2.54;91.43;99357.05;680747;1262;139295;-84
2023/02/03 17:50:21;;;;;;;27.20;14.80;;;;;;;2.49;91.11;99378.44;678285;1262;139117;-84
2023/02/03 18:05:51;;;;;;;85.10;34.80;;;;;;;2.48;90.95;99376.92;676856;1262;140646;-83
2023/02/03 18:20:55;;;;;;;292.60;86.20;;;;;;;2.35;91.67;99380.75;674559;1263;138879;-83
2023/02/03 18:36:00;;;;;;;630.40;165.20;;;;;;;2.22;92.09;99414.10;672364;1263;139683;-82
2023/02/03 18:51:17;;;;;;;330.30;101.00;;;;;;;2.23;91.65;99440.58;674737;1263;140223;-82
2023/02/03 19:09:16;;;;;;;385.00;91.90;;;;;;;2.28;91.63;99479.80;657867;1294;545240;-81
2023/02/03 19:24:21;;;;;;;330.80;86.30;;;;;;;2.29;91.22;99472.27;669894;1273;140878;-83
2023/02/03 19:39:25;;;;;;;139.40;45.30;;;;;;;2.29;91.24;99492.67;671843;1273;138476;-82
2023/02/03 19:54:30;;;;;;;100.50;34.60;;;;;;;2.21;91.39;99531.31;670856;1269;138459;-82
2023/02/03 20:09:38;;;;;;;50.40;19.10;;;;;;;2.14;91.77;99538.46;673548;1273;138233;-82
2023/02/03 20:24:42;;;;;;;173.30;54.50;;;;;;;2.11;92.26;99567.84;673298;1284;138266;-82
2023/02/03 20:39:49;;;;;;;213.00;66.40;;;;;;;2.17;92.26;99622.64;671641;1272;138736;-82
2023/02/03 20:54:53;;;;;;;125.50;46.50;;;;;;;2.25;92.57;99646.85;671344;1271;138428;-82
2023/02/03 21:09:59;;;;;;;71.40;29.60;;;;;;;2.26;92.42;99690.63;674015;1272;138486;-82
2023/02/03 21:25:06;;;;;;;32.00;15.20;;;;;;;2.14;92.74;99718.63;670193;1271;140181;-82
2023/02/03 21:40:19;;;;;;;28.10;13.00;;;;;;;2.03;93.14;99775.00;674276;1270;138571;-81
2023/02/03 21:55:24;;;;;;;34.00;17.60;;;;;;;2.01;93.08;99822.70;674195;1272;138594;-83
2023/02/03 22:10:28;;;;;;;27.20;12.10;;;;;;;1.93;93.50;99870.12;672423;1273;138927;-83
2023/02/03 22:25:31;;;;;;;21.90;11.80;;;;;;;1.85;93.93;99940.95;671884;1271;138950;-83
2023/02/03 22:40:35;;;;;;;23.90;12.30;;;;;;;1.67;96.53;100002.62;671814;1272;139220;-82
2023/02/03 22:55:39;;;;;;;26.00;13.10;;;;;;;1.64;97.31;100029.20;670722;1271;139626;-81
2023/02/03 23:10:42;;;;;;;23.30;12.70;;;;;;;1.71;96.36;100073.78;673346;1260;138131;-83
2023/02/03 23:25:45;;;;;;;23.30;12.10;;;;;;;1.78;94.11;100119.65;674844;1263;139154;-82
2023/02/03 23:40:49;;;;;;;32.30;16.30;;;;;;;1.87;92.81;100164.37;673244;1263;139161;-82
2023/02/03 23:55:52;;;;;;;30.40;14.40;;;;;;;1.73;91.98;100211.48;673844;1263;138948;-82
